Time;durP1;ratioP1;P1;durP2;ratioP2;P2;SDS_P1;SDS_P2;PMS_P1;PMS_P2;Temp;Humidity;BMP_temperature;BMP_pressure;BME280_temperature;BME280_humidity;BME280_pressure;Samples;Min_cycle;Max_cycle;Signal;HPM_P1;HPM_P2
2022/01/15 00:00:12;;;;;;;20.35;12.10;;;;;;;;;;5005087;28;20201;-77
2022/01/15 00:02:40;;;;;;;22.60;11.80;;;;;;;;;;5006902;28;20203;-76
2022/01/15 00:05:07;;;;;;;21.10;12.95;;;;;;;;;;5014264;28;20196;-76
2022/01/15 00:07:34;;;;;;;20.85;12.88;;;;;;;;;;5013289;28;20196;-76
2022/01/15 00:10:01;;;;;;;19.02;11.73;;;;;;;;;;4998806;28;20545;-76
2022/01/15 00:12:37;;;;;;;19.33;11.82;;;;;;;;;;5010021;28;20200;-76
2022/01/15 00:15:04;;;;;;;19.08;12.15;;;;;;;;;;5013084;28;20197;-77
2022/01/15 00:17:45;;;;;;;22.73;13.05;;;;;;;;;;5010938;28;20318;-77
2022/01/15 00:20:12;;;;;;;22.58;14.00;;;;;;;;;;5002004;28;20196;-77
2022/01/15 00:22:39;;;;;;;22.40;11.48;;;;;;;;;;5012813;28;20195;-77
2022/01/15 00:25:07;;;;;;;20.00;12.85;;;;;;;;;;5004298;28;20196;-77
2022/01/15 00:27:35;;;;;;;18.58;12.35;;;;;;;;;;5010684;28;20200;-77
2022/01/15 00:30:04;;;;;;;22.50;13.23;;;;;;;;;;5010378;28;20211;-77
2022/01/15 00:32:31;;;;;;;22.45;13.32;;;;;;;;;;5011220;28;20196;-77
2022/01/15 00:35:00;;;;;;;18.80;12.43;;;;;;;;;;5001813;28;20189;-77
2022/01/15 00:37:30;;;;;;;26.00;13.52;;;;;;;;;;5004881;28;20244;-77
2022/01/15 00:39:58;;;;;;;19.70;11.85;;;;;;;;;;5008637;28;20707;-77
2022/01/15 00:42:25;;;;;;;17.88;11.93;;;;;;;;;;5009536;28;20192;-77
2022/01/15 00:44:55;;;;;;;17.88;11.25;;;;;;;;;;5012542;28;20651;-77
2022/01/15 00:47:22;;;;;;;19.20;11.57;;;;;;;;;;5009917;28;20680;-77
2022/01/15 00:49:49;;;;;;;20.02;11.30;;;;;;;;;;5000842;28;20220;-77
2022/01/15 00:52:16;;;;;;;21.92;12.40;;;;;;;;;;5011365;28;20259;-76
2022/01/15 00:54:43;;;;;;;21.50;12.70;;;;;;;;;;5006973;28;20205;-76
2022/01/15 00:57:11;;;;;;;23.88;13.80;;;;;;;;;;5008715;28;20698;-77
2022/01/15 00:59:38;;;;;;;25.65;12.55;;;;;;;;;;5010441;28;20567;-76
2022/01/15 01:02:06;;;;;;;20.75;12.13;;;;;;;;;;5009237;28;20196;-76
2022/01/15 01:04:33;;;;;;;20.77;11.85;;;;;;;;;;5004381;28;20197;-76
2022/01/15 01:07:00;;;;;;;22.85;12.07;;;;;;;;;;5012787;28;20203;-76
2022/01/15 01:09:39;;;;;;;20.30;12.10;;;;;;;;;;5007470;28;20192;-76
2022/01/15 01:12:21;;;;;;;21.17;13.13;;;;;;;;;;5011018;28;20196;-76
2022/01/15 01:20:27;;;;;;;22.23;12.88;;;;;;;;;;5001542;28;20200;-77
2022/01/15 01:22:57;;;;;;;19.15;13.13;;;;;;;;;;5010711;28;20192;-77
2022/01/15 01:25:28;;;;;;;19.58;11.35;;;;;;;;;;5003365;28;20200;-77
2022/01/15 01:28:03;;;;;;;19.88;11.85;;;;;;;;;;5012138;28;20202;-77
2022/01/15 01:30:36;;;;;;;22.08;12.18;;;;;;;;;;5003055;28;20188;-77
2022/01/15 01:33:17;;;;;;;21.60;11.90;;;;;;;;;;5004227;28;20203;-77
2022/01/15 01:35:48;;;;;;;21.35;12.30;;;;;;;;;;4997493;28;20552;-77
2022/01/15 01:38:24;;;;;;;17.05;10.35;;;;;;;;;;5009645;28;20216;-76
2022/01/15 01:40:51;;;;;;;21.10;12.10;;;;;;;;;;5011409;28;20282;-77
2022/01/15 01:46:18;;;;;;;22.10;12.13;;;;;;;;;;4994920;28;20223;-76
2022/01/15 01:48:46;;;;;;;27.80;14.27;;;;;;;;;;5005674;28;20192;-77
2022/01/15 01:51:21;;;;;;;23.70;12.77;;;;;;;;;;5004934;28;20193;-77
2022/01/15 01:53:48;;;;;;;21.95;12.65;;;;;;;;;;4998658;28;20196;-76
2022/01/15 01:56:15;;;;;;;18.27;11.13;;;;;;;;;;5001837;28;20655;-77
2022/01/15 01:58:42;;;;;;;21.15;12.30;;;;;;;;;;5012171;28;20201;-76
2022/01/15 02:01:09;;;;;;;18.80;11.20;;;;;;;;;;5007513;28;20196;-77
2022/01/15 02:03:37;;;;;;;18.58;12.25;;;;;;;;;;5009581;28;20192;-77
2022/01/15 02:06:06;;;;;;;23.60;12.93;;;;;;;;;;5004012;28;20200;-76
2022/01/15 02:08:34;;;;;;;19.27;10.57;;;;;;;;;;4998173;28;20204;-77
2022/01/15 02:11:02;;;;;;;18.08;11.93;;;;;;;;;;5003829;28;20231;-77
2022/01/15 02:13:30;;;;;;;20.70;12.70;;;;;;;;;;5010887;28;20192;-78
2022/01/15 02:15:58;;;;;;;19.10;10.90;;;;;;;;;;5006275;28;20213;-78
2022/01/15 02:18:25;;;;;;;22.98;12.50;;;;;;;;;;5008796;28;20266;-78
2022/01/15 02:23:32;;;;;;;19.80;11.30;;;;;;;;;;4996030;28;20200;-78
2022/01/15 02:23:51;;;;;;;25.23;11.00;;;;;;;;;;5001940;28;20228;-78
2022/01/15 02:26:18;;;;;;;18.75;11.80;;;;;;;;;;5010411;28;20203;-78
2022/01/15 02:28:47;;;;;;;19.08;11.77;;;;;;;;;;5011112;28;20211;-78
2022/01/15 02:31:15;;;;;;;17.73;11.93;;;;;;;;;;5005695;28;20261;-78
2022/01/15 02:33:43;;;;;;;19.38;10.88;;;;;;;;;;5004960;28;20204;-78
2022/01/15 02:36:13;;;;;;;18.98;11.30;;;;;;;;;;5006874;28;20197;-77
2022/01/15 02:38:40;;;;;;;19.20;11.90;;;;;;;;;;4992206;28;20192;-76
2022/01/15 02:41:07;;;;;;;18.00;11.65;;;;;;;;;;5002180;28;20205;-76
2022/01/15 02:43:34;;;;;;;19.77;11.30;;;;;;;;;;5007909;28;20196;-76
2022/01/15 02:46:18;;;;;;;21.83;10.77;;;;;;;;;;5011634;28;20200;-76
2022/01/15 02:48:46;;;;;;;15.20;9.45;;;;;;;;;;5006709;28;20203;-76
2022/01/15 02:51:14;;;;;;;17.95;11.93;;;;;;;;;;5009906;28;20204;-76
2022/01/15 02:53:42;;;;;;;15.05;9.00;;;;;;;;;;5007325;28;20571;-77
2022/01/15 02:56:10;;;;;;;19.55;12.15;;;;;;;;;;5001111;28;20196;-76
2022/01/15 02:58:37;;;;;;;21.42;11.68;;;;;;;;;;5000976;28;20216;-76
2022/01/15 03:01:06;;;;;;;17.80;11.95;;;;;;;;;;5006598;28;20566;-76
2022/01/15 03:03:33;;;;;;;16.27;10.77;;;;;;;;;;5004400;28;20566;-76
2022/01/15 03:06:01;;;;;;;16.80;11.18;;;;;;;;;;5010195;28;20196;-76
2022/01/15 03:08:32;;;;;;;18.17;11.82;;;;;;;;;;5009313;28;20192;-76
2022/01/15 03:10:59;;;;;;;20.20;12.60;;;;;;;;;;5001990;28;20188;-76
2022/01/15 03:13:26;;;;;;;20.02;10.75;;;;;;;;;;5007872;28;20612;-76
2022/01/15 03:15:53;;;;;;;22.38;10.32;;;;;;;;;;5004313;28;20643;-76
2022/01/15 03:18:21;;;;;;;17.70;12.13;;;;;;;;;;4997718;28;20687;-76
2022/01/15 03:20:48;;;;;;;16.83;11.23;;;;;;;;;;5009570;28;20301;-76
2022/01/15 03:23:15;;;;;;;16.75;11.80;;;;;;;;;;5004590;28;20196;-76
2022/01/15 03:25:44;;;;;;;19.75;11.52;;;;;;;;;;5003094;28;20651;-76
2022/01/15 03:28:11;;;;;;;23.67;10.13;;;;;;;;;;4998907;28;20205;-77
2022/01/15 03:30:38;;;;;;;19.17;12.20;;;;;;;;;;5007141;28;20232;-77
2022/01/15 03:33:05;;;;;;;17.30;11.80;;;;;;;;;;5008287;28;20203;-77
2022/01/15 03:35:33;;;;;;;19.27;12.20;;;;;;;;;;5009302;28;20202;-77
2022/01/15 03:38:00;;;;;;;15.52;10.18;;;;;;;;;;5005067;28;20227;-76
2022/01/15 03:40:27;;;;;;;19.45;11.20;;;;;;;;;;5004366;28;20188;-77
2022/01/15 03:42:55;;;;;;;18.88;11.40;;;;;;;;;;5010339;28;20198;-77
2022/01/15 03:45:22;;;;;;;18.83;12.20;;;;;;;;;;5006303;28;20200;-76
2022/01/15 03:47:49;;;;;;;20.40;12.48;;;;;;;;;;5010025;28;20545;-77
2022/01/15 03:50:17;;;;;;;19.60;12.07;;;;;;;;;;5009366;28;20197;-77
2022/01/15 03:52:44;;;;;;;16.73;11.15;;;;;;;;;;5007303;28;20196;-77
2022/01/15 03:55:12;;;;;;;18.63;11.50;;;;;;;;;;5004183;28;21622;-77
2022/01/15 03:57:40;;;;;;;16.95;10.70;;;;;;;;;;5004989;28;20213;-77
2022/01/15 04:00:09;;;;;;;17.02;11.13;;;;;;;;;;5008239;28;20196;-77
2022/01/15 04:02:36;;;;;;;17.95;10.93;;;;;;;;;;4992776;28;20231;-77
2022/01/15 04:05:04;;;;;;;18.65;12.57;;;;;;;;;;5006748;28;20602;-77
2022/01/15 04:07:31;;;;;;;18.13;11.48;;;;;;;;;;5000319;28;20197;-77
2022/01/15 04:09:58;;;;;;;14.75;9.63;;;;;;;;;;4994435;28;20192;-78
2022/01/15 04:12:25;;;;;;;18.58;11.50;;;;;;;;;;5009777;28;20192;-78
2022/01/15 04:14:52;;;;;;;18.20;11.65;;;;;;;;;;5013615;28;20196;-78
2022/01/15 04:17:20;;;;;;;23.40;12.48;;;;;;;;;;5005775;28;20228;-77
2022/01/15 04:19:47;;;;;;;17.20;10.95;;;;;;;;;;5009157;28;20196;-78
2022/01/15 04:22:14;;;;;;;22.10;12.27;;;;;;;;;;5004851;28;20207;-78
2022/01/15 04:24:41;;;;;;;19.05;12.32;;;;;;;;;;5000764;28;20210;-78
2022/01/15 04:27:08;;;;;;;16.13;10.70;;;;;;;;;;5014211;28;20200;-78
2022/01/15 04:29:36;;;;;;;18.63;11.32;;;;;;;;;;5005549;28;20200;-74
2022/01/15 04:32:03;;;;;;;16.88;12.48;;;;;;;;;;5011698;28;20690;-77
2022/01/15 04:34:32;;;;;;;20.17;12.57;;;;;;;;;;5009138;28;20247;-78
2022/01/15 04:37:04;;;;;;;18.02;12.63;;;;;;;;;;5006090;28;20192;-78
2022/01/15 04:39:31;;;;;;;16.58;10.15;;;;;;;;;;5008110;28;20196;-78
2022/01/15 04:41:59;;;;;;;21.83;12.85;;;;;;;;;;5005897;28;20204;-78
2022/01/15 04:44:26;;;;;;;20.48;11.93;;;;;;;;;;5013717;28;20327;-78
2022/01/15 04:46:53;;;;;;;18.80;11.90;;;;;;;;;;5007062;28;20200;-78
2022/01/15 04:49:20;;;;;;;19.65;12.07;;;;;;;;;;5004480;28;20204;-78
2022/01/15 04:51:48;;;;;;;22.17;11.00;;;;;;;;;;5007619;28;20207;-79
2022/01/15 04:54:15;;;;;;;19.50;10.52;;;;;;;;;;5000367;28;20204;-76
2022/01/15 04:56:42;;;;;;;19.05;12.40;;;;;;;;;;5004355;28;20200;-79
2022/01/15 04:59:10;;;;;;;20.63;12.57;;;;;;;;;;5012482;28;20220;-77
2022/01/15 05:01:37;;;;;;;18.88;12.00;;;;;;;;;;5010839;28;20555;-76
2022/01/15 05:04:05;;;;;;;17.92;11.57;;;;;;;;;;5007203;28;20240;-76
2022/01/15 05:06:32;;;;;;;20.45;13.88;;;;;;;;;;5008935;28;20188;-79
2022/01/15 05:09:03;;;;;;;16.10;10.90;;;;;;;;;;5006769;28;20197;-79
2022/01/15 05:11:43;;;;;;;17.13;11.40;;;;;;;;;;5007777;28;20207;-77
2022/01/15 05:14:10;;;;;;;24.75;13.45;;;;;;;;;;5011698;28;20194;-79
2022/01/15 05:16:37;;;;;;;19.90;10.43;;;;;;;;;;5006385;28;20212;-76
2022/01/15 05:19:04;;;;;;;19.23;10.80;;;;;;;;;;5004086;28;20216;-76
2022/01/15 05:21:31;;;;;;;17.52;10.63;;;;;;;;;;5010053;28;20196;-78
2022/01/15 05:23:58;;;;;;;20.55;12.40;;;;;;;;;;5002692;28;20197;-75
2022/01/15 05:26:27;;;;;;;21.02;12.25;;;;;;;;;;5009149;28;20725;-76
2022/01/15 05:28:54;;;;;;;19.25;11.55;;;;;;;;;;5010443;28;20231;-76
2022/01/15 05:31:21;;;;;;;16.83;10.75;;;;;;;;;;5009383;28;20196;-77
2022/01/15 05:33:48;;;;;;;16.48;10.55;;;;;;;;;;5006868;28;20200;-76
2022/01/15 05:36:15;;;;;;;17.25;10.20;;;;;;;;;;5007228;28;20547;-76
2022/01/15 05:38:42;;;;;;;13.15;9.48;;;;;;;;;;5009294;28;20587;-77
2022/01/15 05:41:09;;;;;;;14.43;10.80;;;;;;;;;;5005231;28;20240;-76
2022/01/15 05:43:38;;;;;;;19.33;12.32;;;;;;;;;;5013296;28;20223;-76
2022/01/15 05:46:05;;;;;;;16.92;8.52;;;;;;;;;;5015385;28;20196;-77
2022/01/15 05:48:32;;;;;;;17.13;10.82;;;;;;;;;;5005349;28;20201;-77
2022/01/15 05:50:59;;;;;;;14.27;9.70;;;;;;;;;;5006713;28;20204;-76
2022/01/15 05:53:26;;;;;;;14.05;9.38;;;;;;;;;;5010733;28;20206;-77
2022/01/15 05:55:53;;;;;;;14.40;9.18;;;;;;;;;;5009526;28;20200;-77
2022/01/15 05:58:20;;;;;;;15.48;9.65;;;;;;;;;;5012068;28;20224;-76
2022/01/15 06:00:48;;;;;;;17.02;10.15;;;;;;;;;;5011053;28;20203;-77
2022/01/15 06:03:15;;;;;;;14.63;9.80;;;;;;;;;;5010252;28;20193;-76
2022/01/15 06:05:42;;;;;;;17.05;10.52;;;;;;;;;;5010444;28;20197;-77
2022/01/15 06:08:09;;;;;;;16.33;10.02;;;;;;;;;;5011723;28;20200;-75
2022/01/15 06:10:36;;;;;;;17.77;11.52;;;;;;;;;;5009011;28;20203;-74
2022/01/15 06:13:04;;;;;;;14.48;9.40;;;;;;;;;;5010902;28;20551;-75
2022/01/15 06:15:31;;;;;;;14.23;10.00;;;;;;;;;;5011496;28;20548;-74
2022/01/15 06:17:59;;;;;;;15.35;9.55;;;;;;;;;;5007037;28;20687;-74
2022/01/15 06:20:26;;;;;;;14.45;9.85;;;;;;;;;;5006508;28;20652;-74
2022/01/15 06:22:53;;;;;;;16.00;10.52;;;;;;;;;;5006896;28;20200;-74
2022/01/15 06:25:20;;;;;;;17.90;11.30;;;;;;;;;;5008783;28;20201;-75
2022/01/15 06:27:47;;;;;;;18.20;10.82;;;;;;;;;;5011355;28;20207;-75
2022/01/15 06:30:15;;;;;;;14.13;9.45;;;;;;;;;;5010930;28;20200;-75
2022/01/15 06:32:42;;;;;;;15.10;10.23;;;;;;;;;;5011246;28;20686;-76
2022/01/15 06:35:12;;;;;;;16.27;9.27;;;;;;;;;;5009595;28;20207;-75
2022/01/15 06:37:39;;;;;;;15.25;9.02;;;;;;;;;;5010662;28;20204;-75
2022/01/15 06:40:07;;;;;;;16.38;9.07;;;;;;;;;;5008692;28;20192;-75
2022/01/15 06:42:34;;;;;;;14.30;9.85;;;;;;;;;;5011641;28;20207;-75
2022/01/15 06:45:02;;;;;;;14.63;11.00;;;;;;;;;;5009512;28;20214;-75
2022/01/15 06:47:29;;;;;;;18.98;10.43;;;;;;;;;;5008122;28;20198;-75
2022/01/15 06:49:56;;;;;;;15.43;10.38;;;;;;;;;;5008927;28;20200;-75
2022/01/15 06:52:25;;;;;;;15.82;10.65;;;;;;;;;;5010318;28;20189;-76
2022/01/15 06:54:52;;;;;;;14.30;8.43;;;;;;;;;;5010619;28;20547;-76
2022/01/15 06:57:19;;;;;;;16.85;9.50;;;;;;;;;;5010284;28;20211;-77
2022/01/15 06:59:46;;;;;;;11.98;9.02;;;;;;;;;;5010111;28;20220;-77
2022/01/15 07:02:13;;;;;;;13.82;9.38;;;;;;;;;;5011359;28;20196;-76
2022/01/15 07:04:40;;;;;;;13.45;9.57;;;;;;;;;;4999070;28;20567;-77
2022/01/15 07:07:07;;;;;;;16.25;10.85;;;;;;;;;;5005244;28;20189;-77
2022/01/15 07:09:36;;;;;;;11.95;8.68;;;;;;;;;;4994650;28;20192;-76
2022/01/15 07:12:03;;;;;;;12.70;10.48;;;;;;;;;;5010978;28;20234;-76
2022/01/15 07:14:30;;;;;;;18.17;10.38;;;;;;;;;;5009824;28;20651;-76
2022/01/15 07:16:57;;;;;;;10.40;8.65;;;;;;;;;;4999051;28;20239;-76
2022/01/15 07:19:24;;;;;;;12.32;8.50;;;;;;;;;;4999005;28;20216;-77
2022/01/15 07:21:51;;;;;;;11.93;9.70;;;;;;;;;;5007535;28;20196;-77
2022/01/15 07:24:18;;;;;;;15.85;10.35;;;;;;;;;;5009277;28;20196;-76
2022/01/15 07:26:49;;;;;;;12.25;9.52;;;;;;;;;;5009514;28;20196;-77
2022/01/15 07:29:16;;;;;;;14.75;9.30;;;;;;;;;;5004607;28;20197;-77
2022/01/15 07:31:45;;;;;;;14.48;9.98;;;;;;;;;;5006217;28;20287;-77
2022/01/15 07:34:12;;;;;;;14.20;9.88;;;;;;;;;;5001256;28;20295;-77
2022/01/15 07:36:39;;;;;;;12.20;9.65;;;;;;;;;;5007843;28;20203;-77
2022/01/15 07:39:07;;;;;;;11.95;8.95;;;;;;;;;;5002184;28;20224;-77
2022/01/15 07:41:34;;;;;;;13.43;9.57;;;;;;;;;;5010628;28;20189;-77
2022/01/15 07:44:02;;;;;;;10.90;8.45;;;;;;;;;;5010441;28;20215;-78
2022/01/15 07:46:30;;;;;;;18.92;9.57;;;;;;;;;;5008637;28;20197;-77
2022/01/15 07:48:57;;;;;;;12.73;8.40;;;;;;;;;;5005491;28;20201;-77
2022/01/15 07:51:24;;;;;;;12.38;9.18;;;;;;;;;;5011564;28;20192;-77
2022/01/15 07:53:51;;;;;;;16.52;8.50;;;;;;;;;;5011798;28;20203;-77
2022/01/15 07:56:18;;;;;;;8.90;7.80;;;;;;;;;;5013039;28;20203;-77
2022/01/15 07:58:45;;;;;;;13.48;9.02;;;;;;;;;;5006929;28;20216;-77
2022/01/15 08:01:13;;;;;;;10.70;8.57;;;;;;;;;;5011889;28;20193;-76
2022/01/15 08:03:40;;;;;;;9.90;7.30;;;;;;;;;;5007940;28;20200;-76
2022/01/15 08:06:09;;;;;;;12.50;8.55;;;;;;;;;;5012945;28;20663;-76
2022/01/15 08:08:36;;;;;;;11.52;7.63;;;;;;;;;;5006623;28;20200;-75
2022/01/15 08:11:03;;;;;;;11.68;9.07;;;;;;;;;;5009397;28;20204;-74
2022/01/15 08:13:31;;;;;;;12.07;8.00;;;;;;;;;;5013261;28;20246;-74
2022/01/15 08:15:58;;;;;;;10.15;6.80;;;;;;;;;;5011769;28;20266;-74
2022/01/15 08:18:27;;;;;;;9.02;6.72;;;;;;;;;;5011749;28;20216;-75
2022/01/15 08:20:54;;;;;;;9.10;7.88;;;;;;;;;;5011959;28;20283;-74
2022/01/15 08:23:21;;;;;;;11.90;8.35;;;;;;;;;;5013655;28;20200;-75
2022/01/15 08:25:48;;;;;;;13.25;8.18;;;;;;;;;;5002316;28;20204;-75
2022/01/15 08:28:16;;;;;;;10.48;7.97;;;;;;;;;;5013793;28;20211;-75
2022/01/15 08:30:43;;;;;;;8.68;7.53;;;;;;;;;;5012660;28;20196;-75
2022/01/15 08:33:10;;;;;;;9.70;6.80;;;;;;;;;;5015101;28;20193;-75
2022/01/15 08:35:39;;;;;;;11.38;7.72;;;;;;;;;;5013835;28;20193;-74
2022/01/15 08:38:06;;;;;;;7.72;5.25;;;;;;;;;;5012997;28;20571;-75
2022/01/15 08:40:33;;;;;;;7.88;5.72;;;;;;;;;;5006995;28;20259;-74
2022/01/15 08:43:00;;;;;;;12.93;7.28;;;;;;;;;;5013344;28;20207;-75
2022/01/15 08:45:27;;;;;;;9.07;6.13;;;;;;;;;;5013663;28;20647;-74
2022/01/15 08:47:54;;;;;;;9.25;7.13;;;;;;;;;;5006826;28;20279;-75
2022/01/15 08:50:22;;;;;;;13.32;8.52;;;;;;;;;;5012415;28;20213;-75
2022/01/15 08:52:50;;;;;;;7.00;6.15;;;;;;;;;;5006541;28;20200;-74
2022/01/15 08:55:20;;;;;;;10.35;7.35;;;;;;;;;;4996352;28;20197;-75
2022/01/15 08:57:47;;;;;;;10.55;6.75;;;;;;;;;;4993779;28;20201;-75
2022/01/15 09:00:16;;;;;;;8.75;6.40;;;;;;;;;;5000396;28;20232;-75
2022/01/15 09:02:43;;;;;;;9.18;6.63;;;;;;;;;;5004251;28;20292;-75
2022/01/15 09:05:10;;;;;;;7.78;6.07;;;;;;;;;;5013545;28;20197;-74
2022/01/15 09:07:37;;;;;;;9.52;6.97;;;;;;;;;;5012714;28;20196;-74
2022/01/15 09:10:06;;;;;;;8.63;6.40;;;;;;;;;;4998040;28;20200;-75
2022/01/15 09:12:33;;;;;;;10.15;6.10;;;;;;;;;;5009915;28;20678;-74
2022/01/15 09:15:00;;;;;;;8.05;5.05;;;;;;;;;;5011401;28;20196;-75
2022/01/15 09:17:28;;;;;;;9.52;6.30;;;;;;;;;;5009983;28;20215;-75
2022/01/15 09:19:55;;;;;;;7.97;5.70;;;;;;;;;;5011310;28;20215;-77
2022/01/15 09:22:23;;;;;;;7.22;5.90;;;;;;;;;;5008616;28;20196;-77
2022/01/15 09:24:50;;;;;;;6.35;5.28;;;;;;;;;;5004318;28;20203;-76
2022/01/15 09:30:16;;;;;;;7.22;5.50;;;;;;;;;;4994765;28;20215;-76
2022/01/15 09:32:44;;;;;;;9.10;6.20;;;;;;;;;;5009818;28;20448;-77
2022/01/15 09:35:11;;;;;;;9.32;5.40;;;;;;;;;;5003035;28;20195;-74
2022/01/15 09:37:38;;;;;;;7.07;6.10;;;;;;;;;;5012078;28;20655;-74
2022/01/15 09:40:06;;;;;;;6.75;4.85;;;;;;;;;;4997536;28;20722;-73
2022/01/15 09:42:34;;;;;;;7.68;5.97;;;;;;;;;;5002495;28;20204;-74
2022/01/15 09:45:03;;;;;;;6.72;5.00;;;;;;;;;;4998704;28;20231;-73
2022/01/15 09:47:31;;;;;;;8.90;5.57;;;;;;;;;;5008905;28;20655;-74
2022/01/15 09:49:58;;;;;;;6.45;5.40;;;;;;;;;;5004235;28;20219;-73
2022/01/15 09:52:26;;;;;;;6.05;5.45;;;;;;;;;;5012164;28;20197;-73
2022/01/15 09:54:53;;;;;;;5.72;5.13;;;;;;;;;;5006531;28;20264;-74
2022/01/15 09:57:20;;;;;;;11.18;5.25;;;;;;;;;;5010944;28;20192;-73
2022/01/15 09:59:49;;;;;;;5.30;4.80;;;;;;;;;;5000545;28;20216;-74
2022/01/15 10:02:16;;;;;;;4.68;4.15;;;;;;;;;;5009529;28;20188;-74
2022/01/15 10:04:44;;;;;;;7.30;6.60;;;;;;;;;;5003537;28;20196;-74
2022/01/15 10:07:12;;;;;;;5.90;5.13;;;;;;;;;;5007591;28;20193;-74
2022/01/15 10:09:39;;;;;;;8.70;5.70;;;;;;;;;;4999674;28;20682;-73
2022/01/15 10:12:07;;;;;;;6.75;5.25;;;;;;;;;;5007136;28;20586;-74
2022/01/15 10:14:35;;;;;;;7.07;5.68;;;;;;;;;;5009881;28;20196;-75
2022/01/15 10:17:05;;;;;;;6.65;5.90;;;;;;;;;;5007642;28;20320;-76
2022/01/15 10:19:33;;;;;;;7.97;4.93;;;;;;;;;;5007218;28;20222;-76
2022/01/15 10:22:05;;;;;;;6.00;5.30;;;;;;;;;;5011778;28;20199;-76
2022/01/15 10:24:32;;;;;;;7.45;5.45;;;;;;;;;;5003439;28;20626;-76
2022/01/15 10:27:17;;;;;;;9.65;7.20;;;;;;;;;;5011048;28;20196;-77
2022/01/15 10:29:49;;;;;;;7.28;5.88;;;;;;;;;;5010606;28;20215;-76
2022/01/15 10:32:17;;;;;;;7.43;5.03;;;;;;;;;;5010913;28;20199;-76
2022/01/15 10:34:45;;;;;;;7.68;5.95;;;;;;;;;;5010056;28;20200;-76
2022/01/15 10:37:13;;;;;;;6.13;5.22;;;;;;;;;;5009818;28;20203;-76
2022/01/15 10:39:40;;;;;;;7.43;5.93;;;;;;;;;;4999775;28;20225;-76
2022/01/15 10:42:14;;;;;;;6.85;5.75;;;;;;;;;;5007307;28;20211;-76
2022/01/15 10:44:42;;;;;;;7.43;5.47;;;;;;;;;;5003670;28;20200;-75
2022/01/15 10:47:10;;;;;;;6.82;5.30;;;;;;;;;;5002748;28;20597;-74
2022/01/15 10:49:39;;;;;;;8.95;6.53;;;;;;;;;;5002048;28;20579;-76
2022/01/15 10:52:10;;;;;;;9.02;5.82;;;;;;;;;;5009680;28;20200;-75
2022/01/15 10:54:50;;;;;;;6.03;4.90;;;;;;;;;;4996791;28;20208;-77
2022/01/15 10:57:19;;;;;;;5.82;4.82;;;;;;;;;;5000395;28;20211;-77
2022/01/15 10:59:56;;;;;;;6.43;5.40;;;;;;;;;;5005897;28;20212;-78
2022/01/15 11:02:23;;;;;;;7.07;5.50;;;;;;;;;;5001682;28;20197;-75
2022/01/15 11:04:51;;;;;;;5.25;4.55;;;;;;;;;;5006119;28;20193;-76
2022/01/15 11:07:19;;;;;;;8.55;6.13;;;;;;;;;;5007755;28;20203;-76
2022/01/15 11:09:48;;;;;;;5.35;4.68;;;;;;;;;;5002077;28;20212;-77
2022/01/15 11:12:15;;;;;;;7.80;5.90;;;;;;;;;;5007590;28;20204;-75
2022/01/15 11:14:42;;;;;;;6.60;5.25;;;;;;;;;;5008036;28;20199;-76
2022/01/15 11:17:09;;;;;;;6.28;4.93;;;;;;;;;;5007054;28;20694;-75
2022/01/15 11:19:37;;;;;;;6.65;5.45;;;;;;;;;;5001652;28;20888;-76
2022/01/15 11:22:05;;;;;;;9.65;6.57;;;;;;;;;;5005055;28;20602;-77
2022/01/15 11:24:33;;;;;;;6.32;5.35;;;;;;;;;;5009724;28;20196;-74
2022/01/15 11:27:00;;;;;;;6.63;5.72;;;;;;;;;;5011280;28;20200;-77
2022/01/15 11:29:28;;;;;;;6.03;5.43;;;;;;;;;;5011288;28;20208;-77
2022/01/15 11:31:57;;;;;;;6.78;5.22;;;;;;;;;;5011783;28;20211;-75
2022/01/15 11:34:25;;;;;;;8.10;5.97;;;;;;;;;;4998814;28;20682;-77
2022/01/15 11:36:52;;;;;;;6.32;5.35;;;;;;;;;;5007231;28;20208;-78
2022/01/15 11:39:22;;;;;;;8.40;6.15;;;;;;;;;;5003125;28;20196;-74
2022/01/15 11:41:52;;;;;;;8.25;6.65;;;;;;;;;;5032482;28;20561;-75
2022/01/15 11:44:19;;;;;;;9.15;5.70;;;;;;;;;;5034854;28;20210;-76
2022/01/15 11:46:48;;;;;;;8.30;6.75;;;;;;;;;;5022805;28;20196;-76
2022/01/15 11:49:31;;;;;;;8.90;6.50;;;;;;;;;;5006742;28;20220;-76
2022/01/15 11:51:59;;;;;;;8.13;6.35;;;;;;;;;;5004752;28;20200;-75
2022/01/15 11:54:27;;;;;;;7.90;6.10;;;;;;;;;;5006639;28;20200;-77
2022/01/15 11:56:54;;;;;;;9.85;6.55;;;;;;;;;;5005619;28;20220;-75
2022/01/15 11:59:40;;;;;;;7.57;5.85;;;;;;;;;;5008727;28;20655;-76
2022/01/15 12:02:25;;;;;;;5.72;4.93;;;;;;;;;;5002779;28;20209;-75
2022/01/15 12:04:52;;;;;;;8.00;5.25;;;;;;;;;;5010493;28;20334;-77
2022/01/15 12:07:22;;;;;;;9.15;5.93;;;;;;;;;;4998568;28;20647;-75
2022/01/15 12:09:52;;;;;;;8.15;6.25;;;;;;;;;;5005892;28;20215;-76
2022/01/15 12:12:41;;;;;;;6.78;5.25;;;;;;;;;;5010778;28;20579;-78
2022/01/15 12:15:10;;;;;;;6.68;4.57;;;;;;;;;;5004071;28;20192;-75
2022/01/15 12:17:38;;;;;;;6.55;5.55;;;;;;;;;;5002233;28;20224;-76
2022/01/15 12:20:06;;;;;;;8.07;6.10;;;;;;;;;;4998200;28;20658;-77
2022/01/15 12:22:37;;;;;;;9.45;6.35;;;;;;;;;;5012275;28;20207;-76
2022/01/15 12:25:06;;;;;;;10.07;6.28;;;;;;;;;;4997710;28;20209;-75
2022/01/15 12:27:34;;;;;;;9.40;5.95;;;;;;;;;;5005760;28;20207;-77
2022/01/15 12:30:03;;;;;;;5.95;4.07;;;;;;;;;;5011170;28;20227;-76
2022/01/15 12:32:30;;;;;;;6.38;5.60;;;;;;;;;;5008534;28;20246;-76
2022/01/15 12:34:59;;;;;;;6.85;4.80;;;;;;;;;;5008393;28;20204;-75
2022/01/15 12:37:26;;;;;;;6.70;5.88;;;;;;;;;;5008115;28;20197;-75
2022/01/15 12:39:53;;;;;;;8.10;6.78;;;;;;;;;;5005344;28;20220;-75
2022/01/15 12:42:23;;;;;;;5.82;5.00;;;;;;;;;;5011189;28;20200;-73
2022/01/15 12:44:53;;;;;;;6.13;4.90;;;;;;;;;;5010994;28;20251;-76
2022/01/15 12:47:22;;;;;;;5.22;4.72;;;;;;;;;;5007124;28;20207;-77
2022/01/15 12:49:50;;;;;;;5.95;5.30;;;;;;;;;;5008927;28;20204;-77
2022/01/15 12:52:18;;;;;;;9.23;5.47;;;;;;;;;;5007987;28;20362;-76
2022/01/15 12:54:49;;;;;;;6.32;5.65;;;;;;;;;;4998154;28;20568;-77
2022/01/15 12:57:31;;;;;;;5.97;4.90;;;;;;;;;;5009535;28;20218;-76
2022/01/15 13:00:02;;;;;;;8.25;5.93;;;;;;;;;;5006478;28;20224;-76
2022/01/15 13:02:29;;;;;;;5.88;5.07;;;;;;;;;;5004085;28;20200;-76
2022/01/15 13:04:56;;;;;;;5.80;5.30;;;;;;;;;;5007000;28;20659;-77
2022/01/15 13:07:23;;;;;;;7.18;6.13;;;;;;;;;;5009188;28;20208;-76
2022/01/15 13:09:50;;;;;;;6.47;4.85;;;;;;;;;;5005565;28;20197;-77
2022/01/15 13:12:17;;;;;;;5.85;5.15;;;;;;;;;;5009606;28;20199;-74
2022/01/15 13:14:45;;;;;;;7.03;5.50;;;;;;;;;;5006868;28;20207;-75
2022/01/15 13:17:27;;;;;;;6.47;5.00;;;;;;;;;;5005258;28;20216;-75
2022/01/15 13:19:56;;;;;;;7.18;5.93;;;;;;;;;;5005712;28;20292;-75
2022/01/15 13:22:23;;;;;;;5.55;5.05;;;;;;;;;;5008988;28;20207;-75
2022/01/15 13:24:58;;;;;;;7.25;6.55;;;;;;;;;;5008441;28;20204;-75
2022/01/15 13:27:25;;;;;;;8.35;5.30;;;;;;;;;;5008868;28;20206;-75
2022/01/15 13:29:52;;;;;;;5.10;4.53;;;;;;;;;;5007705;28;20199;-75
2022/01/15 13:32:22;;;;;;;5.13;4.63;;;;;;;;;;5008366;28;20208;-75
2022/01/15 13:34:49;;;;;;;6.43;5.30;;;;;;;;;;5006810;28;20193;-77
2022/01/15 13:37:19;;;;;;;7.90;5.35;;;;;;;;;;5008523;28;20210;-77
2022/01/15 13:39:48;;;;;;;6.40;5.55;;;;;;;;;;5000616;28;20259;-76
2022/01/15 13:42:17;;;;;;;5.93;4.80;;;;;;;;;;5012332;28;20196;-75
2022/01/15 13:44:44;;;;;;;6.35;5.10;;;;;;;;;;5007994;28;20207;-75
2022/01/15 13:47:13;;;;;;;8.95;5.85;;;;;;;;;;5007374;28;20196;-75
2022/01/15 13:55:25;;;;;;;7.03;5.63;;;;;;;;;;4999318;28;20208;-75
2022/01/15 13:57:52;;;;;;;6.63;5.60;;;;;;;;;;5004758;28;20200;-75
2022/01/15 14:00:19;;;;;;;5.18;4.35;;;;;;;;;;5000247;28;20223;-74
2022/01/15 14:02:49;;;;;;;7.65;5.50;;;;;;;;;;4999003;28;20206;-75
2022/01/15 14:05:17;;;;;;;6.18;4.90;;;;;;;;;;5001499;28;20220;-74
2022/01/15 14:07:46;;;;;;;6.00;4.95;;;;;;;;;;5002513;28;20223;-74
2022/01/15 14:10:14;;;;;;;6.95;4.55;;;;;;;;;;4999342;28;20715;-75
2022/01/15 14:12:41;;;;;;;5.60;5.10;;;;;;;;;;5004052;28;20211;-76
2022/01/15 14:15:14;;;;;;;7.75;6.10;;;;;;;;;;5011367;28;20206;-76
2022/01/15 14:17:43;;;;;;;6.40;4.75;;;;;;;;;;5001971;28;21024;-75
2022/01/15 14:20:40;;;;;;;6.07;4.70;;;;;;;;;;5009841;28;20290;-76
2022/01/15 14:23:09;;;;;;;7.90;5.30;;;;;;;;;;5011394;28;20200;-75
2022/01/15 14:25:39;;;;;;;6.90;4.22;;;;;;;;;;5005588;28;20200;-75
2022/01/15 14:28:08;;;;;;;8.27;6.53;;;;;;;;;;5009724;28;20275;-76
2022/01/15 14:30:36;;;;;;;8.00;5.68;;;;;;;;;;5008088;28;20204;-75
2022/01/15 14:33:04;;;;;;;7.13;6.05;;;;;;;;;;5008375;28;20199;-76
2022/01/15 14:35:32;;;;;;;6.22;5.63;;;;;;;;;;5006876;28;20219;-75
2022/01/15 14:37:59;;;;;;;6.82;5.57;;;;;;;;;;5009686;28;20204;-75
2022/01/15 14:40:28;;;;;;;7.95;4.70;;;;;;;;;;5003457;28;20230;-75
2022/01/15 14:42:55;;;;;;;7.68;5.57;;;;;;;;;;5010084;28;20655;-76
2022/01/15 14:45:22;;;;;;;6.30;4.85;;;;;;;;;;5010589;28;20262;-76
2022/01/15 14:47:51;;;;;;;11.20;6.90;;;;;;;;;;4996487;28;20201;-75
2022/01/15 14:50:18;;;;;;;5.97;5.38;;;;;;;;;;4994099;28;20300;-75
2022/01/15 14:52:46;;;;;;;6.28;5.68;;;;;;;;;;5010829;28;20216;-75
2022/01/15 14:55:13;;;;;;;5.55;4.90;;;;;;;;;;5006427;28;20211;-75